createdAt,value
2022-12-11T00:00:39.790Z,19.83
2022-12-11T00:02:42.572Z,20.63
2022-12-11T00:04:47.197Z,20.37
2022-12-11T00:06:50.653Z,20.80
2022-12-11T00:08:54.407Z,18.93
2022-12-11T00:10:59.958Z,20.53
2022-12-11T00:13:02.996Z,19.07
2022-12-11T00:15:09.204Z,19.70
2022-12-11T00:17:12.331Z,19.60
2022-12-11T00:19:15.397Z,19.67
2022-12-11T00:21:21.234Z,19.43
2022-12-11T00:23:24.229Z,18.90
2022-12-11T00:25:27.066Z,18.63
2022-12-11T00:27:29.840Z,22.40
2022-12-11T00:29:33.238Z,19.43
2022-12-11T00:31:42.204Z,19.10
2022-12-11T00:33:45.898Z,18.97
2022-12-11T00:35:48.845Z,23.83
2022-12-11T00:37:53.811Z,22.70
2022-12-11T00:39:56.491Z,18.83
2022-12-11T00:41:59.474Z,19.83
2022-12-11T00:44:02.875Z,19.00
2022-12-11T00:46:06.934Z,18.80
2022-12-11T00:48:10.496Z,18.30
2022-12-11T00:50:16.448Z,19.40
2022-12-11T00:52:19.575Z,18.63
2022-12-11T00:54:24.477Z,17.70
2022-12-11T00:56:27.608Z,16.47
2022-12-11T00:58:30.930Z,18.17
2022-12-11T01:00:34.060Z,16.73
2022-12-11T01:02:37.310Z,16.67
2022-12-11T01:04:40.408Z,18.17
2022-12-11T01:06:43.289Z,17.60
2022-12-11T01:09:09.995Z,18.93
2022-12-11T01:11:15.286Z,17.93
2022-12-11T01:13:18.451Z,18.53
2022-12-11T01:15:22.945Z,17.93
2022-12-11T01:17:25.923Z,18.40
2022-12-11T01:19:28.701Z,17.30
2022-12-11T01:21:31.737Z,18.40
2022-12-11T01:23:37.665Z,20.13
2022-12-11T01:25:44.461Z,19.33
2022-12-11T01:27:56.777Z,18.97
2022-12-11T01:29:59.858Z,18.80
2022-12-11T01:32:02.531Z,18.83
2022-12-11T01:34:05.880Z,19.20
2022-12-11T01:36:10.481Z,18.30
2022-12-11T01:38:15.375Z,19.00
2022-12-11T01:40:22.080Z,19.97
2022-12-11T01:42:26.295Z,19.40
2022-12-11T01:45:06.749Z,20.07
2022-12-11T01:47:16.668Z,19.00
2022-12-11T01:49:22.067Z,19.50
2022-12-11T01:51:27.978Z,19.27
2022-12-11T01:53:35.130Z,20.33
2022-12-11T01:55:42.114Z,19.07
2022-12-11T01:57:49.527Z,18.73
2022-12-11T01:59:52.598Z,19.73
2022-12-11T02:02:00.471Z,18.50
2022-12-11T02:04:05.260Z,18.80
2022-12-11T02:06:26.293Z,18.80
2022-12-11T02:08:30.030Z,18.20
2022-12-11T02:10:50.390Z,19.10
2022-12-11T02:12:59.901Z,18.23
2022-12-11T02:15:13.742Z,19.33
2022-12-11T02:17:23.722Z,18.97
2022-12-11T02:19:53.378Z,18.03
2022-12-11T02:21:57.826Z,18.53
2022-12-11T02:24:28.213Z,18.80
2022-12-11T02:26:50.585Z,20.23
2022-12-11T02:28:59.054Z,19.77
2022-12-11T02:31:06.712Z,20.13
2022-12-11T02:33:12.610Z,19.00
2022-12-11T02:35:21.549Z,19.13
2022-12-11T02:37:29.609Z,20.03
2022-12-11T02:39:36.724Z,19.60
2022-12-11T02:41:40.828Z,20.97
2022-12-11T02:43:45.037Z,18.63
2022-12-11T02:45:51.029Z,20.50
2022-12-11T02:47:53.982Z,18.80
2022-12-11T02:49:59.410Z,19.63
2022-12-11T02:52:05.867Z,19.40
2022-12-11T02:54:15.443Z,19.20
2022-12-11T02:56:23.018Z,20.80
2022-12-11T02:58:29.763Z,19.23
2022-12-11T03:00:33.479Z,19.17
2022-12-11T03:02:38.203Z,18.90
2022-12-11T03:04:42.796Z,19.47
2022-12-11T03:06:51.387Z,19.27
2022-12-11T03:08:54.126Z,18.63
2022-12-11T03:10:57.064Z,18.63
2022-12-11T03:13:03.574Z,18.93
2022-12-11T03:15:14.445Z,20.03
2022-12-11T03:17:20.405Z,20.60
2022-12-11T03:19:35.806Z,19.87
2022-12-11T03:21:44.858Z,19.73
2022-12-11T03:23:51.867Z,19.33
2022-12-11T03:25:57.802Z,20.03
2022-12-11T03:28:10.840Z,20.73
2022-12-11T03:30:17.182Z,23.00
2022-12-11T03:32:23.579Z,22.00
2022-12-11T03:34:32.090Z,22.23
2022-12-11T03:36:38.527Z,23.00
2022-12-11T03:38:49.319Z,23.87
2022-12-11T03:40:58.940Z,22.73
2022-12-11T03:43:06.082Z,25.47
2022-12-11T03:45:10.202Z,23.73
2022-12-11T03:47:19.034Z,23.33
2022-12-11T03:49:25.596Z,24.23
2022-12-11T03:51:30.631Z,23.77
2022-12-11T03:53:35.253Z,23.97
2022-12-11T03:55:40.615Z,23.80
2022-12-11T03:57:43.991Z,23.17
2022-12-11T03:59:47.536Z,23.37
2022-12-11T04:01:50.586Z,23.37
2022-12-11T04:03:53.773Z,23.93
2022-12-11T04:05:57.335Z,23.20
2022-12-11T04:08:01.592Z,23.90
2022-12-11T04:10:06.150Z,25.67
2022-12-11T04:12:09.084Z,23.33
2022-12-11T04:14:32.026Z,24.57
2022-12-11T04:16:34.927Z,23.30
2022-12-11T04:18:55.018Z,24.10
2022-12-11T04:21:15.561Z,23.83
2022-12-11T04:23:38.196Z,23.33
2022-12-11T04:25:40.912Z,25.47
2022-12-11T04:27:52.931Z,23.60
2022-12-11T04:29:55.941Z,25.07
2022-12-11T04:31:58.879Z,25.43
2022-12-11T04:34:01.602Z,25.37
2022-12-11T04:36:04.794Z,25.30
2022-12-11T04:38:07.822Z,24.93
2022-12-11T04:40:14.868Z,24.00
2022-12-11T04:42:17.557Z,25.83
2022-12-11T04:44:20.284Z,26.90
2022-12-11T04:46:24.769Z,25.90
2022-12-11T04:48:27.579Z,24.87
2022-12-11T04:50:30.386Z,24.87
2022-12-11T04:52:35.635Z,25.53
2022-12-11T04:54:38.808Z,26.30
2022-12-11T04:56:42.961Z,26.20
2022-12-11T04:58:47.139Z,24.60
2022-12-11T05:00:49.917Z,26.53
2022-12-11T05:02:52.663Z,27.20
2022-12-11T05:04:55.392Z,26.47
2022-12-11T05:06:58.101Z,26.77
2022-12-11T05:09:00.771Z,28.20
2022-12-11T05:11:05.515Z,27.73
2022-12-11T05:13:09.631Z,28.07
2022-12-11T05:15:12.857Z,27.90
2022-12-11T05:17:15.690Z,28.00
2022-12-11T05:19:18.587Z,28.47
2022-12-11T05:21:21.492Z,28.07
2022-12-11T05:23:24.362Z,27.07
2022-12-11T05:25:27.628Z,27.67
2022-12-11T05:27:30.652Z,27.63
2022-12-11T05:29:34.872Z,27.17
2022-12-11T05:31:37.742Z,27.37
2022-12-11T05:33:40.545Z,26.73
2022-12-11T05:35:48.605Z,28.17
2022-12-11T05:37:51.313Z,28.37
2022-12-11T05:39:54.014Z,28.33
2022-12-11T05:41:56.740Z,27.40
2022-12-11T05:43:59.662Z,28.33
2022-12-11T05:46:08.759Z,28.57
2022-12-11T05:48:11.516Z,27.63
2022-12-11T05:50:14.221Z,26.43
2022-12-11T05:52:17.481Z,26.63
2022-12-11T05:54:20.173Z,27.63
2022-12-11T05:56:26.614Z,29.73
2022-12-11T05:58:29.500Z,28.10
2022-12-11T06:00:36.011Z,28.17
2022-12-11T06:02:41.126Z,27.80
2022-12-11T06:04:44.169Z,29.17
2022-12-11T06:06:46.857Z,27.87
2022-12-11T06:08:54.122Z,28.37
2022-12-11T06:10:57.887Z,28.73
2022-12-11T06:13:01.969Z,29.27
2022-12-11T06:15:05.672Z,30.00
2022-12-11T06:17:08.566Z,27.90
2022-12-11T06:19:17.263Z,28.77
2022-12-11T06:21:23.434Z,25.97
2022-12-11T06:23:26.185Z,27.93
2022-12-11T06:25:30.115Z,28.43
2022-12-11T06:27:33.126Z,27.67
2022-12-11T06:29:35.874Z,29.13
2022-12-11T06:31:38.597Z,28.10
2022-12-11T06:33:41.498Z,29.77
2022-12-11T06:35:46.461Z,28.07
2022-12-11T06:37:49.386Z,28.17
2022-12-11T06:39:52.180Z,27.47
2022-12-11T06:41:54.857Z,28.43
2022-12-11T06:43:57.571Z,27.93
2022-12-11T06:46:03.805Z,28.83
2022-12-11T06:48:07.386Z,28.13
2022-12-11T06:50:10.746Z,27.07
2022-12-11T06:52:18.539Z,26.90
2022-12-11T06:54:21.516Z,28.30
2022-12-11T06:56:25.320Z,27.03
2022-12-11T06:58:28.123Z,28.43
2022-12-11T07:00:31.287Z,27.43
2022-12-11T07:02:34.320Z,28.73
2022-12-11T07:04:37.089Z,30.00
2022-12-11T07:06:39.831Z,28.17
2022-12-11T07:08:44.160Z,28.60
2022-12-11T07:10:46.996Z,27.10
2022-12-11T07:12:50.238Z,28.07
2022-12-11T07:14:53.047Z,26.90
2022-12-11T07:16:55.841Z,25.97
2022-12-11T07:18:59.057Z,24.83
2022-12-11T07:21:02.239Z,25.93
2022-12-11T07:23:05.384Z,27.23
2022-12-11T07:25:10.564Z,26.63
2022-12-11T07:27:13.443Z,25.40
2022-12-11T07:29:16.415Z,26.50
2022-12-11T07:31:21.517Z,25.77
2022-12-11T07:33:24.552Z,25.83
2022-12-11T07:35:27.303Z,27.40
2022-12-11T07:37:30.038Z,26.33
2022-12-11T07:39:32.822Z,27.47
2022-12-11T07:41:36.929Z,26.70
2022-12-11T07:43:39.761Z,28.57
2022-12-11T07:45:42.982Z,28.33
2022-12-11T07:47:46.270Z,28.33
2022-12-11T07:49:49.550Z,27.83
2022-12-11T07:51:52.571Z,28.33
2022-12-11T07:53:58.190Z,28.20
2022-12-11T07:56:01.351Z,25.87
2022-12-11T07:58:05.640Z,26.47
2022-12-11T08:00:10.613Z,26.33
2022-12-11T08:02:14.275Z,27.97
2022-12-11T08:04:17.210Z,26.90
2022-12-11T08:06:21.959Z,27.17
2022-12-11T08:08:25.147Z,25.93
2022-12-11T08:10:28.018Z,26.80
2022-12-11T08:12:30.980Z,25.87
2022-12-11T08:14:35.178Z,25.37
2022-12-11T08:16:40.581Z,28.17
2022-12-11T08:18:44.392Z,27.30
2022-12-11T08:20:47.353Z,25.57
2022-12-11T08:22:54.608Z,26.60
2022-12-11T08:25:00.651Z,26.80
2022-12-11T08:27:05.003Z,28.37
2022-12-11T08:29:08.071Z,28.27
2022-12-11T08:31:14.657Z,28.93
2022-12-11T08:33:17.649Z,28.47
2022-12-11T08:35:20.503Z,29.10
2022-12-11T08:37:25.788Z,29.03
2022-12-11T08:39:30.025Z,30.10
2022-12-11T08:41:34.546Z,28.80
2022-12-11T08:43:37.298Z,29.63
2022-12-11T08:45:40.742Z,29.20
2022-12-11T08:47:47.806Z,29.80
2022-12-11T08:49:51.001Z,29.50
2022-12-11T08:51:54.600Z,31.10
2022-12-11T08:53:58.687Z,29.53
2022-12-11T08:56:05.042Z,29.80
2022-12-11T08:58:07.769Z,29.63
2022-12-11T09:00:15.167Z,28.20
2022-12-11T09:02:17.952Z,29.07
2022-12-11T09:04:22.317Z,28.97
2022-12-11T09:06:28.199Z,28.33
2022-12-11T09:08:31.254Z,29.33
2022-12-11T09:10:34.128Z,28.27
2022-12-11T09:12:38.046Z,27.93
2022-12-11T09:14:43.986Z,27.23
2022-12-11T09:16:49.348Z,26.10
2022-12-11T09:18:54.455Z,26.53
2022-12-11T09:21:02.992Z,25.47
2022-12-11T09:23:06.169Z,28.13
2022-12-11T09:25:13.213Z,26.97
2022-12-11T09:27:17.773Z,27.13
2022-12-11T09:29:20.509Z,28.43
2022-12-11T09:31:25.915Z,28.53
2022-12-11T09:33:29.007Z,27.90
2022-12-11T09:35:31.900Z,28.67
2022-12-11T09:37:38.526Z,31.43
2022-12-11T09:39:41.362Z,29.27
2022-12-11T09:41:53.507Z,28.37
2022-12-11T09:44:04.685Z,28.23
2022-12-11T09:46:12.657Z,27.57
2022-12-11T09:48:20.071Z,29.23
2022-12-11T09:50:25.713Z,28.23
2022-12-11T09:52:35.405Z,28.93
2022-12-11T09:54:44.663Z,29.77
2022-12-11T09:56:53.583Z,29.57
2022-12-11T09:59:07.422Z,29.47
2022-12-11T10:01:15.379Z,29.23
2022-12-11T10:03:49.934Z,27.90
2022-12-11T10:06:04.272Z,28.60
2022-12-11T10:08:16.954Z,28.77
2022-12-11T10:10:33.901Z,28.97
2022-12-11T10:12:46.834Z,30.23
2022-12-11T10:15:15.862Z,27.47
2022-12-11T10:17:24.418Z,28.40
2022-12-11T10:19:29.842Z,28.63
2022-12-11T10:21:40.255Z,28.30
2022-12-11T10:23:47.148Z,27.83
2022-12-11T10:25:55.788Z,27.90
2022-12-11T10:27:59.171Z,27.37
2022-12-11T10:30:08.677Z,25.10
2022-12-11T10:32:20.353Z,24.77
2022-12-11T10:34:34.176Z,24.90
2022-12-11T10:36:40.999Z,24.03
2022-12-11T10:38:45.085Z,21.47
2022-12-11T10:40:51.012Z,26.67
2022-12-11T10:42:55.998Z,26.80
2022-12-11T10:45:01.477Z,26.40
2022-12-11T10:47:06.928Z,23.53
2022-12-11T10:49:23.150Z,23.27
2022-12-11T10:51:34.990Z,21.80
2022-12-11T10:53:37.951Z,19.73
2022-12-11T10:55:46.068Z,19.50
2022-12-11T10:57:58.757Z,22.37
2022-12-11T11:00:02.244Z,24.27
2022-12-11T11:02:07.420Z,22.70
2022-12-11T11:04:20.243Z,23.37
2022-12-11T11:06:24.712Z,24.20
2022-12-11T11:08:29.091Z,23.23
2022-12-11T11:10:32.216Z,23.23
2022-12-11T11:12:40.067Z,19.73
2022-12-11T11:14:44.126Z,18.90
2022-12-11T11:16:49.114Z,16.17
2022-12-11T11:18:55.318Z,15.70
2022-12-11T11:20:58.629Z,14.83
2022-12-11T11:23:04.219Z,13.67
2022-12-11T11:25:16.887Z,12.30
2022-12-11T11:27:29.220Z,12.77
2022-12-11T11:29:34.743Z,12.10
2022-12-11T11:31:39.218Z,11.27
2022-12-11T11:33:52.666Z,9.80
2022-12-11T11:35:56.747Z,10.30
2022-12-11T11:38:05.080Z,10.33
2022-12-11T11:40:14.696Z,10.80
2022-12-11T11:42:21.758Z,13.03
2022-12-11T11:44:29.887Z,12.97
2022-12-11T11:46:38.505Z,12.57
2022-12-11T11:48:50.437Z,12.30
2022-12-11T11:50:53.987Z,14.13
2022-12-11T11:53:01.632Z,13.73
2022-12-11T11:55:10.290Z,15.93
2022-12-11T11:57:19.327Z,12.53
2022-12-11T11:59:26.083Z,13.47
2022-12-11T12:01:29.669Z,13.23
2022-12-11T12:03:32.550Z,13.00
2022-12-11T12:05:43.203Z,12.97
2022-12-11T12:07:51.486Z,13.93
2022-12-11T12:10:02.458Z,11.73
2022-12-11T12:12:17.178Z,11.63
2022-12-11T12:14:51.563Z,11.83
2022-12-11T12:17:01.590Z,11.93
2022-12-11T12:19:14.650Z,12.37
2022-12-11T12:21:27.014Z,13.33
2022-12-11T12:23:45.539Z,13.73
2022-12-11T12:25:53.725Z,13.57
2022-12-11T12:28:03.246Z,15.00
2022-12-11T12:30:11.555Z,16.80
2022-12-11T12:32:25.542Z,14.40
2022-12-11T12:34:41.491Z,17.57
2022-12-11T12:36:50.417Z,15.20
2022-12-11T12:38:56.381Z,14.73
2022-12-11T12:41:13.936Z,14.87
2022-12-11T12:43:47.024Z,16.17
2022-12-11T12:46:00.027Z,15.33
2022-12-11T12:48:03.288Z,14.53
2022-12-11T12:50:13.547Z,13.67
2022-12-11T12:52:19.623Z,12.30
2022-12-11T12:54:24.411Z,12.37
2022-12-11T12:56:31.075Z,12.60
2022-12-11T12:58:42.911Z,13.53
2022-12-11T13:00:45.907Z,12.13
2022-12-11T13:02:50.433Z,11.87
2022-12-11T13:04:59.749Z,12.70
2022-12-11T13:07:13.785Z,11.83
2022-12-11T13:09:22.100Z,12.40
2022-12-11T13:11:34.624Z,13.20
2022-12-11T13:13:40.254Z,13.17
2022-12-11T13:15:43.790Z,11.50
2022-12-11T13:17:47.056Z,11.40
2022-12-11T13:19:52.861Z,11.67
2022-12-11T13:21:59.701Z,14.30
2022-12-11T13:24:16.378Z,14.47
2022-12-11T13:26:30.800Z,13.03
2022-12-11T13:28:47.156Z,11.93
2022-12-11T13:30:59.482Z,12.73
2022-12-11T13:33:05.667Z,13.43
2022-12-11T13:35:15.719Z,12.50
2022-12-11T13:37:26.714Z,13.00
2022-12-11T13:39:32.113Z,13.27
2022-12-11T13:41:38.429Z,12.90
2022-12-11T13:43:43.153Z,13.10
2022-12-11T13:45:50.049Z,11.57
2022-12-11T13:47:53.515Z,12.40
2022-12-11T13:50:03.498Z,13.27
2022-12-11T13:52:07.351Z,13.93
2022-12-11T13:54:17.703Z,11.67
2022-12-11T13:56:23.346Z,11.10
2022-12-11T13:58:28.226Z,10.63
2022-12-11T14:00:33.299Z,10.20
2022-12-11T14:02:40.388Z,9.93
2022-12-11T14:04:43.822Z,9.87
2022-12-11T14:06:46.684Z,11.33
2022-12-11T14:08:54.407Z,9.97
2022-12-11T14:10:57.445Z,10.20
2022-12-11T14:13:03.370Z,10.03
2022-12-11T14:15:13.944Z,9.77
2022-12-11T14:17:23.385Z,9.97
2022-12-11T14:19:26.343Z,11.53
2022-12-11T14:21:29.246Z,14.83
2022-12-11T14:23:34.491Z,12.47
2022-12-11T14:25:37.178Z,30.50
2022-12-11T14:27:49.914Z,28.67
2022-12-11T14:29:53.225Z,11.80
2022-12-11T14:32:00.383Z,13.80
2022-12-11T14:34:07.921Z,28.77
2022-12-11T14:36:11.715Z,14.10
2022-12-11T14:38:19.002Z,12.40
2022-12-11T14:40:25.644Z,12.80
2022-12-11T14:42:32.506Z,13.47
2022-12-11T14:44:46.978Z,10.80
2022-12-11T14:46:54.143Z,11.83
2022-12-11T14:49:02.507Z,13.17
2022-12-11T14:51:08.366Z,13.00
2022-12-11T14:53:15.230Z,13.80
2022-12-11T14:55:21.394Z,13.20
2022-12-11T14:57:28.417Z,13.37
2022-12-11T14:59:34.174Z,13.67
2022-12-11T15:01:38.531Z,15.00
2022-12-11T15:03:43.819Z,15.77
2022-12-11T15:05:53.482Z,14.87
2022-12-11T15:07:59.778Z,15.83
2022-12-11T15:10:03.911Z,16.67
2022-12-11T15:12:12.569Z,19.20
2022-12-11T15:14:19.191Z,17.30
2022-12-11T15:16:24.235Z,16.60
2022-12-11T15:18:30.783Z,18.03
2022-12-11T15:20:33.558Z,15.57
2022-12-11T15:22:37.868Z,15.47
2022-12-11T15:24:43.060Z,16.10
2022-12-11T15:26:47.748Z,16.17
2022-12-11T15:29:01.246Z,14.50
2022-12-11T15:31:06.963Z,16.30
2022-12-11T15:33:22.011Z,16.37
2022-12-11T15:35:26.738Z,14.90
2022-12-11T15:37:30.910Z,14.80
2022-12-11T15:39:34.975Z,15.17
2022-12-11T15:41:37.767Z,15.93
2022-12-11T15:43:40.673Z,14.30
2022-12-11T15:45:43.945Z,14.80
2022-12-11T15:47:47.519Z,13.47
2022-12-11T15:49:50.930Z,12.77
2022-12-11T15:51:54.633Z,14.57
2022-12-11T15:53:57.295Z,14.10
2022-12-11T15:56:01.642Z,14.53
2022-12-11T15:58:08.635Z,13.70
2022-12-11T16:00:19.216Z,15.07
2022-12-11T16:02:24.052Z,13.50
2022-12-11T16:04:27.335Z,14.90
2022-12-11T16:06:30.077Z,12.43
2022-12-11T16:08:33.126Z,13.70
2022-12-11T16:10:35.903Z,14.37
2022-12-11T16:12:40.230Z,13.30
2022-12-11T16:14:43.625Z,14.80
2022-12-11T16:16:46.456Z,13.97
2022-12-11T16:18:49.767Z,15.23
2022-12-11T16:20:53.617Z,15.13
2022-12-11T16:22:56.575Z,14.50
2022-12-11T16:24:59.545Z,15.10
2022-12-11T16:27:02.341Z,15.00
2022-12-11T16:29:06.786Z,14.97
2022-12-11T16:31:11.950Z,13.87
2022-12-11T16:33:15.870Z,14.37
2022-12-11T16:35:19.506Z,12.97
2022-12-11T16:37:22.179Z,13.20
2022-12-11T16:39:25.647Z,13.77
2022-12-11T16:41:28.506Z,12.23
2022-12-11T16:43:31.388Z,13.93
2022-12-11T16:45:36.340Z,12.53
2022-12-11T16:47:39.121Z,13.27
2022-12-11T16:49:43.042Z,11.87
2022-12-11T16:51:49.148Z,11.63
2022-12-11T16:53:53.741Z,13.27
2022-12-11T16:55:56.746Z,11.93
2022-12-11T16:57:59.747Z,13.07
2022-12-11T17:00:02.601Z,12.97
2022-12-11T17:02:06.876Z,12.77
2022-12-11T17:04:10.669Z,12.37
2022-12-11T17:06:15.487Z,12.50
2022-12-11T17:08:18.377Z,13.30
2022-12-11T17:10:21.111Z,13.47
2022-12-11T17:12:27.578Z,12.80
2022-12-11T17:14:30.340Z,12.63
2022-12-11T17:16:36.765Z,12.70
2022-12-11T17:18:41.659Z,11.93
2022-12-11T17:20:45.580Z,12.60
2022-12-11T17:22:48.367Z,13.30
2022-12-11T17:24:51.134Z,14.60
2022-12-11T17:26:53.934Z,13.07
2022-12-11T17:28:57.548Z,12.53
2022-12-11T17:31:00.556Z,12.73
2022-12-11T17:33:04.404Z,11.53
2022-12-11T17:35:14.904Z,12.13
2022-12-11T17:37:17.813Z,12.13
2022-12-11T17:39:21.138Z,11.30
2022-12-11T17:41:25.997Z,12.10
2022-12-11T17:43:28.731Z,11.87
2022-12-11T17:45:31.438Z,11.73
2022-12-11T17:47:34.326Z,11.27
2022-12-11T17:49:37.223Z,10.77
2022-12-11T17:51:41.520Z,11.73
2022-12-11T17:53:44.226Z,14.03
2022-12-11T17:55:47.877Z,12.87
2022-12-11T17:57:50.749Z,12.77
2022-12-11T17:59:55.097Z,13.40
2022-12-11T18:01:58.227Z,13.93
2022-12-11T18:04:02.211Z,14.77
2022-12-11T18:06:07.405Z,15.90
2022-12-11T18:08:13.859Z,18.20
2022-12-11T18:10:17.331Z,16.37
2022-12-11T18:12:20.243Z,16.13
2022-12-11T18:14:23.099Z,16.63
2022-12-11T18:16:28.875Z,16.83
2022-12-11T18:18:35.363Z,17.37
2022-12-11T18:20:40.967Z,17.13
2022-12-11T18:22:43.810Z,15.47
2022-12-11T18:24:51.347Z,22.03
2022-12-11T18:26:59.284Z,23.00
2022-12-11T18:29:02.292Z,18.33
2022-12-11T18:31:09.540Z,19.83
2022-12-11T18:33:13.032Z,20.10
2022-12-11T18:35:16.547Z,17.93
2022-12-11T18:37:22.250Z,17.47
2022-12-11T18:39:29.530Z,17.97
2022-12-11T18:41:33.553Z,18.00
2022-12-11T18:43:36.699Z,18.20
2022-12-11T18:45:41.349Z,18.70
2022-12-11T18:47:44.074Z,18.60
2022-12-11T18:49:46.772Z,17.73
2022-12-11T18:51:49.833Z,16.73
2022-12-11T18:53:53.402Z,17.60
2022-12-11T18:56:00.561Z,18.20
2022-12-11T18:58:05.349Z,19.90
2022-12-11T19:00:11.994Z,21.97
2022-12-11T19:02:16.365Z,19.87
2022-12-11T19:04:19.392Z,20.37
2022-12-11T19:06:26.558Z,19.60
2022-12-11T19:08:29.500Z,18.93
2022-12-11T19:10:32.795Z,20.33
2022-12-11T19:12:36.794Z,20.80
2022-12-11T19:14:40.998Z,22.73
2022-12-11T19:16:45.474Z,25.23
2022-12-11T19:18:48.601Z,25.07
2022-12-11T19:20:55.679Z,24.67
2022-12-11T19:23:06.535Z,23.33
2022-12-11T19:25:10.581Z,22.77
2022-12-11T19:27:14.190Z,23.53
2022-12-11T19:29:21.557Z,22.47
2022-12-11T19:31:25.700Z,22.87
2022-12-11T19:33:28.404Z,23.53
2022-12-11T19:35:31.187Z,23.50
2022-12-11T19:37:33.878Z,22.07
2022-12-11T19:39:39.715Z,20.90
2022-12-11T19:41:42.562Z,20.80
2022-12-11T19:43:45.717Z,21.23
2022-12-11T19:45:48.927Z,22.37
2022-12-11T19:47:53.585Z,22.47
2022-12-11T19:49:56.952Z,23.87
2022-12-11T19:51:59.746Z,22.43
2022-12-11T19:54:03.462Z,23.97
2022-12-11T19:56:07.485Z,22.93
2022-12-11T19:58:10.255Z,21.90
2022-12-11T20:00:14.067Z,20.77
2022-12-11T20:02:17.106Z,20.50
2022-12-11T20:04:21.210Z,21.93
2022-12-11T20:06:28.405Z,21.33
2022-12-11T20:08:46.956Z,22.70
2022-12-11T20:10:49.783Z,24.50
2022-12-11T20:12:56.367Z,22.93
2022-12-11T20:14:59.099Z,22.40
2022-12-11T20:17:12.351Z,25.10
2022-12-11T20:19:16.403Z,24.83
2022-12-11T20:21:20.880Z,25.80
2022-12-11T20:23:23.705Z,26.10
2022-12-11T20:25:26.735Z,25.80
2022-12-11T20:27:29.667Z,25.23
2022-12-11T20:29:32.963Z,26.37
2022-12-11T20:31:37.189Z,24.73
2022-12-11T20:33:40.373Z,26.03
2022-12-11T20:35:43.487Z,28.17
2022-12-11T20:37:47.810Z,29.60
2022-12-11T20:39:50.535Z,30.33
2022-12-11T20:41:53.220Z,31.43
2022-12-11T20:43:56.246Z,30.57
2022-12-11T20:45:59.969Z,32.70
2022-12-11T20:48:02.747Z,32.27
2022-12-11T20:50:06.246Z,32.23
2022-12-11T20:52:09.193Z,32.77
2022-12-11T20:54:13.257Z,33.33
2022-12-11T20:56:18.810Z,34.35
2022-12-11T20:58:21.895Z,32.90
2022-12-11T21:00:24.994Z,34.73
2022-12-11T21:02:30.886Z,34.93
2022-12-11T21:04:33.711Z,30.77
2022-12-11T21:06:38.611Z,31.97
2022-12-11T21:08:41.333Z,33.97
2022-12-11T21:10:46.932Z,30.20
2022-12-11T21:12:49.783Z,31.53
2022-12-11T21:14:52.866Z,31.40
2022-12-11T21:16:56.253Z,33.10
2022-12-11T21:18:59.750Z,33.63
2022-12-11T21:21:02.770Z,34.73
2022-12-11T21:23:05.594Z,32.97
2022-12-11T21:25:09.233Z,33.90
2022-12-11T21:27:15.798Z,32.70
2022-12-11T21:29:18.729Z,33.17
2022-12-11T21:31:22.173Z,32.43
2022-12-11T21:33:24.956Z,31.43
2022-12-11T21:35:27.663Z,33.10
2022-12-11T21:37:30.383Z,34.67
2022-12-11T21:39:38.941Z,34.97
2022-12-11T21:41:42.814Z,35.10
2022-12-11T21:46:13.075Z,30.10
2022-12-11T21:48:16.619Z,31.80
2022-12-11T21:50:19.771Z,30.63
2022-12-11T21:52:22.509Z,32.30
2022-12-11T21:54:25.386Z,31.63
2022-12-11T21:56:30.352Z,30.60
2022-12-11T21:58:33.107Z,28.97
2022-12-11T22:00:38.473Z,31.20
2022-12-11T22:02:41.507Z,28.73
2022-12-11T22:04:47.274Z,30.53
2022-12-11T22:06:50.030Z,32.77
2022-12-11T22:08:53.120Z,33.17
2022-12-11T22:10:56.586Z,35.30
2022-12-11T22:12:59.376Z,32.93
2022-12-11T22:15:02.111Z,34.50
2022-12-11T22:17:06.248Z,33.03
2022-12-11T22:19:09.419Z,33.00
2022-12-11T22:21:12.376Z,31.60
2022-12-11T22:23:15.163Z,33.63
2022-12-11T22:25:18.220Z,35.03
2022-12-11T22:27:23.822Z,36.23
2022-12-11T22:29:26.972Z,33.70
2022-12-11T22:31:29.946Z,34.73
2022-12-11T22:33:34.294Z,33.40
2022-12-11T22:35:37.271Z,36.30
2022-12-11T22:37:40.158Z,35.87
2022-12-11T22:39:42.839Z,37.53
2022-12-11T22:41:45.725Z,32.73
2022-12-11T22:43:48.729Z,31.53
2022-12-11T22:45:53.093Z,33.73
2022-12-11T22:47:55.837Z,33.40
2022-12-11T22:49:59.934Z,33.00
2022-12-11T22:52:02.854Z,30.60
2022-12-11T22:54:05.922Z,29.90
2022-12-11T22:56:10.231Z,29.17
2022-12-11T22:58:17.260Z,32.67
2022-12-11T23:00:23.286Z,29.30
2022-12-11T23:02:26.057Z,31.83
2022-12-11T23:04:28.986Z,30.43
2022-12-11T23:06:33.544Z,31.83
2022-12-11T23:08:36.951Z,33.37
2022-12-11T23:10:41.118Z,31.93
2022-12-11T23:12:43.835Z,30.53
2022-12-11T23:14:46.630Z,31.70
2022-12-11T23:16:49.526Z,34.97
2022-12-11T23:18:52.743Z,32.97
2022-12-11T23:20:55.521Z,32.70
2022-12-11T23:22:59.946Z,33.20
2022-12-11T23:25:02.720Z,32.07
2022-12-11T23:27:05.911Z,31.80
2022-12-11T23:29:09.221Z,33.40
2022-12-11T23:31:12.448Z,31.93
2022-12-11T23:33:15.210Z,31.73
2022-12-11T23:35:18.138Z,32.20
2022-12-11T23:37:21.178Z,35.10
2022-12-11T23:39:25.225Z,36.23
2022-12-11T23:41:28.340Z,35.23
2022-12-11T23:43:31.129Z,34.33
2022-12-11T23:45:34.043Z,30.73
2022-12-11T23:47:36.787Z,33.60
2022-12-11T23:49:39.569Z,33.17
2022-12-11T23:51:42.421Z,32.87
2022-12-11T23:53:45.880Z,31.40
2022-12-11T23:55:50.343Z,31.60
2022-12-11T23:57:53.179Z,33.37
2022-12-11T23:59:55.938Z,31.80
